sensor_id;sensor_type;location;lat;lon;timestamp;P1;durP1;ratioP1;P2;durP2;ratioP2
34573;SDS011;20809;49.594;8.734;2022-08-01T00:01:49;3.85;;;1.60;;
34573;SDS011;20809;49.594;8.734;2022-08-01T00:04:50;2.10;;;1.60;;
34573;SDS011;20809;49.594;8.734;2022-08-01T00:07:54;2.17;;;1.92;;
34573;SDS011;20809;49.594;8.734;2022-08-01T00:10:55;2.20;;;2.00;;
34573;SDS011;20809;49.594;8.734;2022-08-01T00:13:55;2.33;;;1.70;;
34573;SDS011;20809;49.594;8.734;2022-08-01T00:16:56;2.35;;;1.95;;
34573;SDS011;20809;49.594;8.734;2022-08-01T00:19:56;2.33;;;2.13;;
34573;SDS011;20809;49.594;8.734;2022-08-01T00:22:57;1.52;;;1.42;;
34573;SDS011;20809;49.594;8.734;2022-08-01T00:25:58;2.45;;;1.50;;
34573;SDS011;20809;49.594;8.734;2022-08-01T00:28:59;1.73;;;1.63;;
34573;SDS011;20809;49.594;8.734;2022-08-01T00:32:00;1.83;;;1.73;;
34573;SDS011;20809;49.594;8.734;2022-08-01T00:35:00;2.13;;;1.80;;
34573;SDS011;20809;49.594;8.734;2022-08-01T00:38:01;3.42;;;1.95;;
34573;SDS011;20809;49.594;8.734;2022-08-01T00:41:02;1.95;;;1.85;;
34573;SDS011;20809;49.594;8.734;2022-08-01T00:44:04;2.20;;;1.45;;
34573;SDS011;20809;49.594;8.734;2022-08-01T00:47:05;2.72;;;1.50;;
34573;SDS011;20809;49.594;8.734;2022-08-01T00:50:07;3.30;;;1.70;;
34573;SDS011;20809;49.594;8.734;2022-08-01T00:53:08;1.35;;;1.25;;
34573;SDS011;20809;49.594;8.734;2022-08-01T00:59:09;2.42;;;1.60;;
34573;SDS011;20809;49.594;8.734;2022-08-01T01:02:12;2.00;;;1.60;;
34573;SDS011;20809;49.594;8.734;2022-08-01T01:05:12;3.67;;;2.05;;
34573;SDS011;20809;49.594;8.734;2022-08-01T01:08:14;2.17;;;1.90;;
34573;SDS011;20809;49.594;8.734;2022-08-01T01:11:23;1.95;;;1.38;;
34573;SDS011;20809;49.594;8.734;2022-08-01T01:14:38;2.20;;;1.80;;
34573;SDS011;20809;49.594;8.734;2022-08-01T01:24:11;2.58;;;2.03;;
34573;SDS011;20809;49.594;8.734;2022-08-01T01:30:56;2.25;;;1.75;;
34573;SDS011;20809;49.594;8.734;2022-08-01T01:33:58;3.70;;;1.60;;
34573;SDS011;20809;49.594;8.734;2022-08-01T01:37:03;2.30;;;1.55;;
34573;SDS011;20809;49.594;8.734;2022-08-01T01:40:07;4.80;;;1.80;;
34573;SDS011;20809;49.594;8.734;2022-08-01T01:43:11;2.15;;;1.80;;
34573;SDS011;20809;49.594;8.734;2022-08-01T01:46:15;4.57;;;1.98;;
34573;SDS011;20809;49.594;8.734;2022-08-01T01:49:19;1.65;;;1.55;;
34573;SDS011;20809;49.594;8.734;2022-08-01T01:52:23;4.15;;;1.90;;
34573;SDS011;20809;49.594;8.734;2022-08-01T01:55:26;1.77;;;1.67;;
34573;SDS011;20809;49.594;8.734;2022-08-01T01:58:28;2.33;;;1.30;;
34573;SDS011;20809;49.594;8.734;2022-08-01T02:01:32;1.75;;;1.63;;
34573;SDS011;20809;49.594;8.734;2022-08-01T02:04:35;1.73;;;1.63;;
34573;SDS011;20809;49.594;8.734;2022-08-01T02:07:38;2.33;;;1.80;;
34573;SDS011;20809;49.594;8.734;2022-08-01T02:10:40;2.10;;;1.83;;
34573;SDS011;20809;49.594;8.734;2022-08-01T02:14:02;1.80;;;1.70;;
34573;SDS011;20809;49.594;8.734;2022-08-01T02:17:04;2.72;;;1.67;;
34573;SDS011;20809;49.594;8.734;2022-08-01T02:20:05;2.28;;;2.08;;
34573;SDS011;20809;49.594;8.734;2022-08-01T02:23:07;2.10;;;1.90;;
34573;SDS011;20809;49.594;8.734;2022-08-01T02:26:13;1.63;;;1.52;;
34573;SDS011;20809;49.594;8.734;2022-08-01T02:29:19;3.05;;;1.75;;
34573;SDS011;20809;49.594;8.734;2022-08-01T02:32:26;1.73;;;1.63;;
34573;SDS011;20809;49.594;8.734;2022-08-01T02:35:32;2.78;;;1.92;;
34573;SDS011;20809;49.594;8.734;2022-08-01T02:38:37;1.90;;;1.80;;
34573;SDS011;20809;49.594;8.734;2022-08-01T02:41:45;1.80;;;1.70;;
34573;SDS011;20809;49.594;8.734;2022-08-01T02:44:48;1.95;;;1.85;;
34573;SDS011;20809;49.594;8.734;2022-08-01T02:47:54;2.90;;;1.90;;
34573;SDS011;20809;49.594;8.734;2022-08-01T02:50:59;3.42;;;2.33;;
34573;SDS011;20809;49.594;8.734;2022-08-01T02:54:02;2.67;;;1.70;;
34573;SDS011;20809;49.594;8.734;2022-08-01T02:57:05;2.03;;;1.83;;
34573;SDS011;20809;49.594;8.734;2022-08-01T03:00:08;3.25;;;1.60;;
34573;SDS011;20809;49.594;8.734;2022-08-01T03:03:10;1.88;;;1.73;;
34573;SDS011;20809;49.594;8.734;2022-08-01T03:06:12;1.45;;;1.35;;
34573;SDS011;20809;49.594;8.734;2022-08-01T03:09:14;1.67;;;1.58;;
34573;SDS011;20809;49.594;8.734;2022-08-01T03:12:17;1.45;;;1.40;;
34573;SDS011;20809;49.594;8.734;2022-08-01T03:15:21;1.65;;;1.55;;
34573;SDS011;20809;49.594;8.734;2022-08-01T03:18:25;2.20;;;1.88;;
34573;SDS011;20809;49.594;8.734;2022-08-01T03:21:28;2.65;;;2.35;;
34573;SDS011;20809;49.594;8.734;2022-08-01T03:24:31;3.47;;;1.70;;
34573;SDS011;20809;49.594;8.734;2022-08-01T03:27:35;1.85;;;1.65;;
34573;SDS011;20809;49.594;8.734;2022-08-01T03:30:37;2.08;;;1.95;;
34573;SDS011;20809;49.594;8.734;2022-08-01T03:33:40;2.35;;;1.35;;
34573;SDS011;20809;49.594;8.734;2022-08-01T03:36:49;3.45;;;2.42;;
34573;SDS011;20809;49.594;8.734;2022-08-01T03:40:00;2.30;;;2.00;;
34573;SDS011;20809;49.594;8.734;2022-08-01T03:46:28;1.70;;;1.58;;
34573;SDS011;20809;49.594;8.734;2022-08-01T03:49:34;1.42;;;1.33;;
34573;SDS011;20809;49.594;8.734;2022-08-01T03:52:39;1.55;;;1.00;;
34573;SDS011;20809;49.594;8.734;2022-08-01T03:55:43;2.67;;;1.15;;
34573;SDS011;20809;49.594;8.734;2022-08-01T03:58:45;1.30;;;1.20;;
34573;SDS011;20809;49.594;8.734;2022-08-01T04:01:46;3.25;;;1.13;;
34573;SDS011;20809;49.594;8.734;2022-08-01T04:04:48;1.77;;;1.33;;
34573;SDS011;20809;49.594;8.734;2022-08-01T04:10:56;1.80;;;1.40;;
34573;SDS011;20809;49.594;8.734;2022-08-01T04:13:58;2.20;;;1.88;;
34573;SDS011;20809;49.594;8.734;2022-08-01T04:16:59;1.85;;;1.33;;
34573;SDS011;20809;49.594;8.734;2022-08-01T04:20:00;2.45;;;1.27;;
34573;SDS011;20809;49.594;8.734;2022-08-01T04:23:00;2.20;;;2.00;;
34573;SDS011;20809;49.594;8.734;2022-08-01T04:26:02;1.90;;;1.67;;
34573;SDS011;20809;49.594;8.734;2022-08-01T04:29:04;2.38;;;1.50;;
34573;SDS011;20809;49.594;8.734;2022-08-01T04:32:07;2.58;;;1.50;;
34573;SDS011;20809;49.594;8.734;2022-08-01T04:35:11;2.17;;;1.85;;
34573;SDS011;20809;49.594;8.734;2022-08-01T04:38:20;2.60;;;1.80;;
34573;SDS011;20809;49.594;8.734;2022-08-01T04:41:22;1.95;;;1.63;;
34573;SDS011;20809;49.594;8.734;2022-08-01T04:44:24;7.15;;;1.90;;
34573;SDS011;20809;49.594;8.734;2022-08-01T04:47:27;1.70;;;1.60;;
34573;SDS011;20809;49.594;8.734;2022-08-01T04:50:29;1.58;;;1.48;;
34573;SDS011;20809;49.594;8.734;2022-08-01T04:53:31;1.55;;;1.45;;
34573;SDS011;20809;49.594;8.734;2022-08-01T04:56:32;1.50;;;1.40;;
34573;SDS011;20809;49.594;8.734;2022-08-01T05:02:41;1.60;;;1.40;;
34573;SDS011;20809;49.594;8.734;2022-08-01T05:05:42;2.45;;;1.45;;
34573;SDS011;20809;49.594;8.734;2022-08-01T05:08:43;1.48;;;1.38;;
34573;SDS011;20809;49.594;8.734;2022-08-01T05:11:45;4.25;;;1.80;;
34573;SDS011;20809;49.594;8.734;2022-08-01T05:14:46;2.00;;;1.70;;
34573;SDS011;20809;49.594;8.734;2022-08-01T05:17:47;2.55;;;1.60;;
34573;SDS011;20809;49.594;8.734;2022-08-01T05:20:48;1.65;;;1.35;;
34573;SDS011;20809;49.594;8.734;2022-08-01T05:23:49;1.45;;;1.35;;
34573;SDS011;20809;49.594;8.734;2022-08-01T05:26:50;1.25;;;1.13;;
34573;SDS011;20809;49.594;8.734;2022-08-01T05:29:51;1.30;;;1.20;;
34573;SDS011;20809;49.594;8.734;2022-08-01T05:32:52;1.65;;;1.10;;
34573;SDS011;20809;49.594;8.734;2022-08-01T05:35:53;1.20;;;1.10;;
34573;SDS011;20809;49.594;8.734;2022-08-01T05:38:54;2.55;;;2.28;;
34573;SDS011;20809;49.594;8.734;2022-08-01T05:41:55;1.35;;;1.25;;
34573;SDS011;20809;49.594;8.734;2022-08-01T05:44:56;1.83;;;1.40;;
34573;SDS011;20809;49.594;8.734;2022-08-01T05:47:57;1.00;;;1.00;;
34573;SDS011;20809;49.594;8.734;2022-08-01T05:50:58;1.98;;;1.02;;
34573;SDS011;20809;49.594;8.734;2022-08-01T05:53:59;1.60;;;1.50;;
34573;SDS011;20809;49.594;8.734;2022-08-01T05:57:00;2.17;;;1.98;;
34573;SDS011;20809;49.594;8.734;2022-08-01T06:00:01;2.08;;;0.88;;
34573;SDS011;20809;49.594;8.734;2022-08-01T06:03:03;1.20;;;1.10;;
34573;SDS011;20809;49.594;8.734;2022-08-01T06:06:06;1.23;;;1.00;;
34573;SDS011;20809;49.594;8.734;2022-08-01T06:09:07;5.35;;;0.82;;
34573;SDS011;20809;49.594;8.734;2022-08-01T06:12:08;3.42;;;1.17;;
34573;SDS011;20809;49.594;8.734;2022-08-01T06:15:09;1.50;;;1.30;;
34573;SDS011;20809;49.594;8.734;2022-08-01T06:18:11;1.27;;;1.17;;
34573;SDS011;20809;49.594;8.734;2022-08-01T06:21:12;1.35;;;1.20;;
34573;SDS011;20809;49.594;8.734;2022-08-01T06:24:16;1.35;;;0.98;;
34573;SDS011;20809;49.594;8.734;2022-08-01T06:27:17;3.33;;;1.42;;
34573;SDS011;20809;49.594;8.734;2022-08-01T06:30:19;1.08;;;0.98;;
34573;SDS011;20809;49.594;8.734;2022-08-01T06:33:20;2.15;;;1.02;;
34573;SDS011;20809;49.594;8.734;2022-08-01T06:36:21;0.80;;;0.80;;
34573;SDS011;20809;49.594;8.734;2022-08-01T06:39:22;0.98;;;0.73;;
34573;SDS011;20809;49.594;8.734;2022-08-01T06:42:26;1.00;;;0.95;;
34573;SDS011;20809;49.594;8.734;2022-08-01T06:45:27;1.33;;;0.90;;
34573;SDS011;20809;49.594;8.734;2022-08-01T06:48:28;1.65;;;0.90;;
34573;SDS011;20809;49.594;8.734;2022-08-01T06:51:29;1.65;;;1.20;;
34573;SDS011;20809;49.594;8.734;2022-08-01T06:54:30;1.48;;;0.98;;
34573;SDS011;20809;49.594;8.734;2022-08-01T06:57:31;1.92;;;0.63;;
34573;SDS011;20809;49.594;8.734;2022-08-01T07:00:32;3.80;;;0.80;;
34573;SDS011;20809;49.594;8.734;2022-08-01T07:03:34;1.38;;;1.25;;
34573;SDS011;20809;49.594;8.734;2022-08-01T07:06:35;1.77;;;0.93;;
34573;SDS011;20809;49.594;8.734;2022-08-01T07:09:36;0.93;;;0.80;;
34573;SDS011;20809;49.594;8.734;2022-08-01T07:12:40;1.13;;;0.88;;
34573;SDS011;20809;49.594;8.734;2022-08-01T07:18:45;2.15;;;1.33;;
34573;SDS011;20809;49.594;8.734;2022-08-01T07:24:46;0.80;;;0.80;;
34573;SDS011;20809;49.594;8.734;2022-08-01T07:30:48;2.50;;;1.20;;
34573;SDS011;20809;49.594;8.734;2022-08-01T07:42:52;1.45;;;1.10;;
34573;SDS011;20809;49.594;8.734;2022-08-01T07:48:54;2.97;;;1.00;;
34573;SDS011;20809;49.594;8.734;2022-08-01T07:51:54;1.17;;;0.93;;
34573;SDS011;20809;49.594;8.734;2022-08-01T07:54:56;0.75;;;0.75;;
34573;SDS011;20809;49.594;8.734;2022-08-01T07:57:57;1.02;;;1.02;;
34573;SDS011;20809;49.594;8.734;2022-08-01T08:00:58;1.80;;;1.08;;
34573;SDS011;20809;49.594;8.734;2022-08-01T08:03:59;1.45;;;0.98;;
34573;SDS011;20809;49.594;8.734;2022-08-01T08:10:00;1.10;;;1.00;;
34573;SDS011;20809;49.594;8.734;2022-08-01T08:16:02;1.02;;;0.93;;
34573;SDS011;20809;49.594;8.734;2022-08-01T08:19:03;1.48;;;0.93;;
34573;SDS011;20809;49.594;8.734;2022-08-01T08:25:08;1.27;;;0.85;;
34573;SDS011;20809;49.594;8.734;2022-08-01T08:31:16;3.17;;;1.50;;
34573;SDS011;20809;49.594;8.734;2022-08-01T08:34:17;1.58;;;1.00;;
34573;SDS011;20809;49.594;8.734;2022-08-01T08:37:18;2.60;;;0.90;;
34573;SDS011;20809;49.594;8.734;2022-08-01T08:40:19;1.20;;;1.10;;
34573;SDS011;20809;49.594;8.734;2022-08-01T08:43:24;1.23;;;1.10;;
34573;SDS011;20809;49.594;8.734;2022-08-01T08:46:28;1.35;;;1.30;;
34573;SDS011;20809;49.594;8.734;2022-08-01T08:49:32;1.50;;;1.40;;
34573;SDS011;20809;49.594;8.734;2022-08-01T08:52:33;1.15;;;1.15;;
34573;SDS011;20809;49.594;8.734;2022-08-01T08:55:38;1.67;;;1.17;;
34573;SDS011;20809;49.594;8.734;2022-08-01T08:58:40;1.38;;;1.33;;
34573;SDS011;20809;49.594;8.734;2022-08-01T09:01:43;1.30;;;1.20;;
34573;SDS011;20809;49.594;8.734;2022-08-01T09:04:46;1.17;;;1.17;;
34573;SDS011;20809;49.594;8.734;2022-08-01T09:07:51;1.30;;;1.30;;
34573;SDS011;20809;49.594;8.734;2022-08-01T09:10:52;1.92;;;1.20;;
34573;SDS011;20809;49.594;8.734;2022-08-01T09:17:12;1.63;;;1.30;;
34573;SDS011;20809;49.594;8.734;2022-08-01T09:20:22;3.13;;;1.20;;
34573;SDS011;20809;49.594;8.734;2022-08-01T09:26:35;1.20;;;1.20;;
34573;SDS011;20809;49.594;8.734;2022-08-01T09:29:36;1.35;;;1.25;;
34573;SDS011;20809;49.594;8.734;2022-08-01T09:32:51;1.27;;;1.27;;
34573;SDS011;20809;49.594;8.734;2022-08-01T09:36:02;1.13;;;1.00;;
34573;SDS011;20809;49.594;8.734;2022-08-01T09:39:11;1.25;;;1.10;;
34573;SDS011;20809;49.594;8.734;2022-08-01T09:42:20;0.90;;;0.90;;
34573;SDS011;20809;49.594;8.734;2022-08-01T09:45:32;0.85;;;0.85;;
34573;SDS011;20809;49.594;8.734;2022-08-01T09:48:33;0.90;;;0.90;;
34573;SDS011;20809;49.594;8.734;2022-08-01T09:51:38;0.88;;;0.88;;
34573;SDS011;20809;49.594;8.734;2022-08-01T09:54:39;0.85;;;0.85;;
34573;SDS011;20809;49.594;8.734;2022-08-01T09:57:41;0.80;;;0.80;;
34573;SDS011;20809;49.594;8.734;2022-08-01T10:00:58;0.90;;;0.90;;
34573;SDS011;20809;49.594;8.734;2022-08-01T10:04:04;1.40;;;1.35;;
34573;SDS011;20809;49.594;8.734;2022-08-01T10:07:06;0.98;;;0.90;;
34573;SDS011;20809;49.594;8.734;2022-08-01T10:10:12;1.27;;;0.98;;
34573;SDS011;20809;49.594;8.734;2022-08-01T10:13:14;0.80;;;0.80;;
34573;SDS011;20809;49.594;8.734;2022-08-01T10:16:15;0.98;;;0.77;;
34573;SDS011;20809;49.594;8.734;2022-08-01T10:19:16;0.75;;;0.75;;
34573;SDS011;20809;49.594;8.734;2022-08-01T10:22:18;0.70;;;0.70;;
34573;SDS011;20809;49.594;8.734;2022-08-01T10:25:25;0.93;;;0.93;;
34573;SDS011;20809;49.594;8.734;2022-08-01T10:28:29;0.98;;;0.98;;
34573;SDS011;20809;49.594;8.734;2022-08-01T10:31:31;1.75;;;0.95;;
34573;SDS011;20809;49.594;8.734;2022-08-01T10:34:33;1.10;;;1.00;;
34573;SDS011;20809;49.594;8.734;2022-08-01T10:37:35;0.98;;;0.98;;
34573;SDS011;20809;49.594;8.734;2022-08-01T10:40:36;1.20;;;1.10;;
34573;SDS011;20809;49.594;8.734;2022-08-01T10:43:37;1.80;;;1.08;;
34573;SDS011;20809;49.594;8.734;2022-08-01T10:46:38;1.85;;;1.10;;
34573;SDS011;20809;49.594;8.734;2022-08-01T10:53:17;2.05;;;1.40;;
34573;SDS011;20809;49.594;8.734;2022-08-01T10:56:23;1.10;;;1.00;;
34573;SDS011;20809;49.594;8.734;2022-08-01T10:59:27;1.05;;;1.05;;
34573;SDS011;20809;49.594;8.734;2022-08-01T11:02:30;2.22;;;1.63;;
34573;SDS011;20809;49.594;8.734;2022-08-01T11:05:34;0.90;;;0.90;;
34573;SDS011;20809;49.594;8.734;2022-08-01T11:08:36;1.90;;;1.00;;
34573;SDS011;20809;49.594;8.734;2022-08-01T11:15:17;1.25;;;1.20;;
34573;SDS011;20809;49.594;8.734;2022-08-01T11:24:54;0.90;;;0.90;;
34573;SDS011;20809;49.594;8.734;2022-08-01T11:28:39;1.20;;;0.98;;
34573;SDS011;20809;49.594;8.734;2022-08-01T11:31:25;0.90;;;0.90;;
34573;SDS011;20809;49.594;8.734;2022-08-01T11:35:10;1.00;;;1.00;;
34573;SDS011;20809;49.594;8.734;2022-08-01T11:37:53;1.02;;;1.00;;
34573;SDS011;20809;49.594;8.734;2022-08-01T11:41:10;1.30;;;1.20;;
34573;SDS011;20809;49.594;8.734;2022-08-01T11:44:20;0.80;;;0.80;;
34573;SDS011;20809;49.594;8.734;2022-08-01T11:47:44;1.02;;;1.02;;
34573;SDS011;20809;49.594;8.734;2022-08-01T11:50:46;3.17;;;1.13;;
34573;SDS011;20809;49.594;8.734;2022-08-01T11:53:49;1.35;;;1.35;;
34573;SDS011;20809;49.594;8.734;2022-08-01T11:56:53;1.98;;;1.10;;
34573;SDS011;20809;49.594;8.734;2022-08-01T11:59:56;1.30;;;1.20;;
34573;SDS011;20809;49.594;8.734;2022-08-01T12:03:02;1.20;;;1.10;;
34573;SDS011;20809;49.594;8.734;2022-08-01T12:06:04;1.20;;;1.00;;
34573;SDS011;20809;49.594;8.734;2022-08-01T12:09:15;1.42;;;1.35;;
34573;SDS011;20809;49.594;8.734;2022-08-01T12:12:17;3.17;;;2.10;;
34573;SDS011;20809;49.594;8.734;2022-08-01T12:15:19;1.20;;;1.20;;
34573;SDS011;20809;49.594;8.734;2022-08-01T12:18:22;1.15;;;1.15;;
34573;SDS011;20809;49.594;8.734;2022-08-01T12:21:26;1.40;;;1.30;;
34573;SDS011;20809;49.594;8.734;2022-08-01T12:24:27;1.50;;;1.40;;
34573;SDS011;20809;49.594;8.734;2022-08-01T12:27:28;1.50;;;1.10;;
34573;SDS011;20809;49.594;8.734;2022-08-01T12:30:30;2.25;;;2.05;;
34573;SDS011;20809;49.594;8.734;2022-08-01T12:33:35;1.25;;;1.15;;
34573;SDS011;20809;49.594;8.734;2022-08-01T12:36:35;1.38;;;1.25;;
34573;SDS011;20809;49.594;8.734;2022-08-01T12:39:37;1.35;;;1.33;;
34573;SDS011;20809;49.594;8.734;2022-08-01T12:42:42;1.52;;;1.20;;
34573;SDS011;20809;49.594;8.734;2022-08-01T12:45:44;1.30;;;1.20;;
34573;SDS011;20809;49.594;8.734;2022-08-01T12:48:46;1.10;;;1.00;;
34573;SDS011;20809;49.594;8.734;2022-08-01T12:51:48;1.95;;;1.20;;
34573;SDS011;20809;49.594;8.734;2022-08-01T12:55:13;1.20;;;1.10;;
34573;SDS011;20809;49.594;8.734;2022-08-01T12:58:18;1.92;;;1.83;;
34573;SDS011;20809;49.594;8.734;2022-08-01T13:01:25;1.40;;;1.30;;
34573;SDS011;20809;49.594;8.734;2022-08-01T13:04:27;1.27;;;1.27;;
34573;SDS011;20809;49.594;8.734;2022-08-01T13:07:47;1.20;;;1.20;;
34573;SDS011;20809;49.594;8.734;2022-08-01T13:10:59;1.45;;;1.35;;
34573;SDS011;20809;49.594;8.734;2022-08-01T13:14:02;1.10;;;1.10;;
34573;SDS011;20809;49.594;8.734;2022-08-01T13:17:02;2.55;;;1.30;;
34573;SDS011;20809;49.594;8.734;2022-08-01T13:20:04;2.80;;;1.30;;
34573;SDS011;20809;49.594;8.734;2022-08-01T13:23:16;1.75;;;1.25;;
34573;SDS011;20809;49.594;8.734;2022-08-01T13:26:18;1.90;;;1.80;;
34573;SDS011;20809;49.594;8.734;2022-08-01T13:29:37;1.60;;;1.50;;
34573;SDS011;20809;49.594;8.734;2022-08-01T13:32:42;1.20;;;1.20;;
34573;SDS011;20809;49.594;8.734;2022-08-01T13:35:44;1.90;;;1.40;;
34573;SDS011;20809;49.594;8.734;2022-08-01T13:38:46;1.40;;;1.30;;
34573;SDS011;20809;49.594;8.734;2022-08-01T13:42:22;2.50;;;1.30;;
34573;SDS011;20809;49.594;8.734;2022-08-01T13:45:23;1.30;;;1.30;;
34573;SDS011;20809;49.594;8.734;2022-08-01T13:48:26;1.55;;;1.45;;
34573;SDS011;20809;49.594;8.734;2022-08-01T13:51:27;1.73;;;1.60;;
34573;SDS011;20809;49.594;8.734;2022-08-01T13:54:28;1.38;;;1.13;;
34573;SDS011;20809;49.594;8.734;2022-08-01T13:57:29;1.98;;;1.45;;
34573;SDS011;20809;49.594;8.734;2022-08-01T14:00:30;1.50;;;1.40;;
34573;SDS011;20809;49.594;8.734;2022-08-01T14:03:31;1.50;;;1.42;;
34573;SDS011;20809;49.594;8.734;2022-08-01T14:06:32;2.20;;;1.50;;
34573;SDS011;20809;49.594;8.734;2022-08-01T14:09:33;1.40;;;1.40;;
34573;SDS011;20809;49.594;8.734;2022-08-01T14:12:34;1.52;;;1.35;;
34573;SDS011;20809;49.594;8.734;2022-08-01T14:15:35;1.30;;;1.20;;
34573;SDS011;20809;49.594;8.734;2022-08-01T14:18:36;1.40;;;1.30;;
34573;SDS011;20809;49.594;8.734;2022-08-01T14:21:37;1.50;;;1.40;;
34573;SDS011;20809;49.594;8.734;2022-08-01T14:24:38;1.27;;;1.20;;
34573;SDS011;20809;49.594;8.734;2022-08-01T14:27:38;1.05;;;1.05;;
34573;SDS011;20809;49.594;8.734;2022-08-01T14:30:41;1.10;;;1.10;;
34573;SDS011;20809;49.594;8.734;2022-08-01T14:33:42;4.05;;;1.20;;
34573;SDS011;20809;49.594;8.734;2022-08-01T14:36:43;1.80;;;1.58;;
34573;SDS011;20809;49.594;8.734;2022-08-01T14:39:44;1.20;;;1.10;;
34573;SDS011;20809;49.594;8.734;2022-08-01T14:42:44;2.03;;;1.38;;
34573;SDS011;20809;49.594;8.734;2022-08-01T14:45:45;1.08;;;1.08;;
34573;SDS011;20809;49.594;8.734;2022-08-01T14:48:51;1.95;;;1.10;;
34573;SDS011;20809;49.594;8.734;2022-08-01T14:51:56;1.27;;;1.00;;
34573;SDS011;20809;49.594;8.734;2022-08-01T14:54:59;0.98;;;0.98;;
34573;SDS011;20809;49.594;8.734;2022-08-01T14:58:06;1.48;;;1.40;;
34573;SDS011;20809;49.594;8.734;2022-08-01T15:01:07;1.00;;;1.00;;
34573;SDS011;20809;49.594;8.734;2022-08-01T15:04:08;1.27;;;0.98;;
34573;SDS011;20809;49.594;8.734;2022-08-01T15:07:09;1.38;;;1.27;;
34573;SDS011;20809;49.594;8.734;2022-08-01T15:10:11;1.10;;;1.00;;
34573;SDS011;20809;49.594;8.734;2022-08-01T15:13:14;2.03;;;1.10;;
34573;SDS011;20809;49.594;8.734;2022-08-01T15:16:24;1.10;;;0.98;;
34573;SDS011;20809;49.594;8.734;2022-08-01T15:19:26;1.20;;;1.10;;
34573;SDS011;20809;49.594;8.734;2022-08-01T15:22:27;1.20;;;1.10;;
34573;SDS011;20809;49.594;8.734;2022-08-01T15:25:30;1.48;;;1.38;;
34573;SDS011;20809;49.594;8.734;2022-08-01T15:28:31;0.90;;;0.90;;
34573;SDS011;20809;49.594;8.734;2022-08-01T15:31:32;2.08;;;0.93;;
34573;SDS011;20809;49.594;8.734;2022-08-01T15:34:33;1.67;;;1.55;;
34573;SDS011;20809;49.594;8.734;2022-08-01T15:37:35;1.00;;;0.88;;
34573;SDS011;20809;49.594;8.734;2022-08-01T15:40:36;0.93;;;0.93;;
34573;SDS011;20809;49.594;8.734;2022-08-01T15:43:37;1.10;;;1.00;;
34573;SDS011;20809;49.594;8.734;2022-08-01T15:46:38;1.20;;;1.00;;
34573;SDS011;20809;49.594;8.734;2022-08-01T15:49:39;0.90;;;0.90;;
34573;SDS011;20809;49.594;8.734;2022-08-01T15:52:40;0.95;;;0.95;;
34573;SDS011;20809;49.594;8.734;2022-08-01T15:55:41;1.52;;;1.42;;
34573;SDS011;20809;49.594;8.734;2022-08-01T15:58:42;0.80;;;0.80;;
34573;SDS011;20809;49.594;8.734;2022-08-01T16:01:43;3.08;;;1.00;;
34573;SDS011;20809;49.594;8.734;2022-08-01T16:04:43;0.80;;;0.77;;
34573;SDS011;20809;49.594;8.734;2022-08-01T16:07:44;3.75;;;0.90;;
34573;SDS011;20809;49.594;8.734;2022-08-01T16:10:45;1.08;;;0.80;;
34573;SDS011;20809;49.594;8.734;2022-08-01T16:13:45;0.70;;;0.70;;
34573;SDS011;20809;49.594;8.734;2022-08-01T16:16:47;0.73;;;0.73;;
34573;SDS011;20809;49.594;8.734;2022-08-01T16:19:48;0.88;;;0.80;;
34573;SDS011;20809;49.594;8.734;2022-08-01T16:22:49;2.72;;;0.95;;
34573;SDS011;20809;49.594;8.734;2022-08-01T16:25:50;2.85;;;0.80;;
34573;SDS011;20809;49.594;8.734;2022-08-01T16:28:52;3.67;;;0.70;;
34573;SDS011;20809;49.594;8.734;2022-08-01T16:31:53;0.80;;;0.80;;
34573;SDS011;20809;49.594;8.734;2022-08-01T16:37:54;1.67;;;0.80;;
34573;SDS011;20809;49.594;8.734;2022-08-01T16:40:55;0.82;;;0.80;;
34573;SDS011;20809;49.594;8.734;2022-08-01T16:46:57;0.80;;;0.77;;
34573;SDS011;20809;49.594;8.734;2022-08-01T16:52:58;1.10;;;1.00;;
34573;SDS011;20809;49.594;8.734;2022-08-01T16:55:59;0.80;;;0.80;;
34573;SDS011;20809;49.594;8.734;2022-08-01T16:59:00;0.85;;;0.70;;
34573;SDS011;20809;49.594;8.734;2022-08-01T17:02:00;1.08;;;0.98;;
34573;SDS011;20809;49.594;8.734;2022-08-01T17:05:01;1.75;;;0.80;;
34573;SDS011;20809;49.594;8.734;2022-08-01T17:08:06;0.80;;;0.80;;
34573;SDS011;20809;49.594;8.734;2022-08-01T17:11:07;0.80;;;0.80;;
34573;SDS011;20809;49.594;8.734;2022-08-01T17:17:08;0.90;;;0.90;;
34573;SDS011;20809;49.594;8.734;2022-08-01T17:20:12;0.80;;;0.80;;
34573;SDS011;20809;49.594;8.734;2022-08-01T17:23:22;1.00;;;1.00;;
34573;SDS011;20809;49.594;8.734;2022-08-01T17:29:24;0.80;;;0.80;;
34573;SDS011;20809;49.594;8.734;2022-08-01T17:32:26;1.85;;;0.90;;
34573;SDS011;20809;49.594;8.734;2022-08-01T17:38:27;1.90;;;0.80;;
34573;SDS011;20809;49.594;8.734;2022-08-01T17:44:29;0.97;;;0.90;;
34573;SDS011;20809;49.594;8.734;2022-08-01T17:50:32;1.10;;;1.00;;
34573;SDS011;20809;49.594;8.734;2022-08-01T17:56:34;0.90;;;0.90;;
34573;SDS011;20809;49.594;8.734;2022-08-01T18:02:35;1.97;;;0.80;;
34573;SDS011;20809;49.594;8.734;2022-08-01T18:05:38;0.80;;;0.80;;
34573;SDS011;20809;49.594;8.734;2022-08-01T18:11:40;0.85;;;0.80;;
34573;SDS011;20809;49.594;8.734;2022-08-01T18:17:42;2.05;;;0.98;;
34573;SDS011;20809;49.594;8.734;2022-08-01T18:23:44;1.05;;;0.90;;
34573;SDS011;20809;49.594;8.734;2022-08-01T18:29:46;2.13;;;0.80;;
34573;SDS011;20809;49.594;8.734;2022-08-01T18:32:47;1.20;;;1.10;;
34573;SDS011;20809;49.594;8.734;2022-08-01T18:35:48;0.82;;;0.82;;
34573;SDS011;20809;49.594;8.734;2022-08-01T18:38:49;0.82;;;0.82;;
34573;SDS011;20809;49.594;8.734;2022-08-01T18:41:50;2.05;;;1.10;;
34573;SDS011;20809;49.594;8.734;2022-08-01T18:44:51;2.70;;;1.10;;
34573;SDS011;20809;49.594;8.734;2022-08-01T18:47:52;1.02;;;0.95;;
34573;SDS011;20809;49.594;8.734;2022-08-01T18:50:54;1.30;;;1.20;;
34573;SDS011;20809;49.594;8.734;2022-08-01T18:53:55;1.42;;;1.33;;
34573;SDS011;20809;49.594;8.734;2022-08-01T18:56:56;1.10;;;0.98;;
34573;SDS011;20809;49.594;8.734;2022-08-01T18:59:57;3.53;;;2.20;;
34573;SDS011;20809;49.594;8.734;2022-08-01T19:02:58;2.45;;;1.20;;
34573;SDS011;20809;49.594;8.734;2022-08-01T19:05:59;1.10;;;1.10;;
34573;SDS011;20809;49.594;8.734;2022-08-01T19:08:59;2.25;;;1.48;;
34573;SDS011;20809;49.594;8.734;2022-08-01T19:12:02;1.30;;;1.20;;
34573;SDS011;20809;49.594;8.734;2022-08-01T19:18:04;1.50;;;1.20;;
34573;SDS011;20809;49.594;8.734;2022-08-01T19:21:05;1.50;;;1.20;;
34573;SDS011;20809;49.594;8.734;2022-08-01T19:24:06;1.65;;;1.02;;
34573;SDS011;20809;49.594;8.734;2022-08-01T19:27:16;2.25;;;1.10;;
34573;SDS011;20809;49.594;8.734;2022-08-01T19:30:19;1.67;;;1.58;;
34573;SDS011;20809;49.594;8.734;2022-08-01T19:33:20;2.95;;;1.13;;
34573;SDS011;20809;49.594;8.734;2022-08-01T19:36:21;1.58;;;1.48;;
34573;SDS011;20809;49.594;8.734;2022-08-01T19:39:23;2.33;;;1.13;;
34573;SDS011;20809;49.594;8.734;2022-08-01T19:42:26;1.35;;;1.17;;
34573;SDS011;20809;49.594;8.734;2022-08-01T19:45:28;3.58;;;1.00;;
34573;SDS011;20809;49.594;8.734;2022-08-01T19:48:30;1.20;;;1.00;;
34573;SDS011;20809;49.594;8.734;2022-08-01T19:51:32;1.67;;;1.30;;
34573;SDS011;20809;49.594;8.734;2022-08-01T19:54:38;5.75;;;3.67;;
34573;SDS011;20809;49.594;8.734;2022-08-01T19:57:41;2.22;;;1.80;;
34573;SDS011;20809;49.594;8.734;2022-08-01T20:00:43;1.80;;;1.40;;
34573;SDS011;20809;49.594;8.734;2022-08-01T20:03:45;1.25;;;1.15;;
34573;SDS011;20809;49.594;8.734;2022-08-01T20:06:48;0.90;;;0.90;;
34573;SDS011;20809;49.594;8.734;2022-08-01T20:09:49;1.65;;;1.30;;
34573;SDS011;20809;49.594;8.734;2022-08-01T20:12:50;1.45;;;1.33;;
34573;SDS011;20809;49.594;8.734;2022-08-01T20:15:53;1.40;;;1.20;;
34573;SDS011;20809;49.594;8.734;2022-08-01T20:18:54;1.30;;;1.20;;
34573;SDS011;20809;49.594;8.734;2022-08-01T20:21:57;1.20;;;1.05;;
34573;SDS011;20809;49.594;8.734;2022-08-01T20:25:03;1.85;;;1.23;;